createdAt,value
2018-05-06T00:00:09.085Z,69.31
2018-05-06T00:01:09.076Z,69.56
2018-05-06T00:02:09.060Z,69.41
2018-05-06T00:03:09.045Z,69.56
2018-05-06T00:04:09.045Z,69.76
2018-05-06T00:05:09.103Z,69.76
2018-05-06T00:06:09.002Z,69.60
2018-05-06T00:07:08.989Z,69.60
2018-05-06T00:08:08.978Z,69.02
2018-05-06T00:09:08.983Z,68.99
2018-05-06T00:10:08.949Z,68.90
2018-05-06T00:11:08.942Z,69.18
2018-05-06T00:12:08.922Z,68.90
2018-05-06T00:13:08.907Z,68.74
2018-05-06T00:14:08.893Z,68.61
2018-05-06T00:15:08.959Z,69.31
2018-05-06T00:16:08.864Z,69.09
2018-05-06T00:17:08.853Z,69.21
2018-05-06T00:18:08.838Z,68.99
2018-05-06T00:19:08.832Z,69.21
2018-05-06T00:20:08.828Z,69.18
2018-05-06T00:21:08.797Z,68.99
2018-05-06T00:22:08.783Z,69.12
2018-05-06T00:23:08.775Z,68.80
2018-05-06T00:24:08.756Z,69.18
2018-05-06T00:25:08.757Z,68.99
2018-05-06T00:26:08.729Z,69.56
2018-05-06T00:27:08.728Z,68.90
2018-05-06T00:28:08.699Z,68.90
2018-05-06T00:29:08.684Z,69.18
2018-05-06T00:30:08.686Z,69.27
2018-05-06T00:31:08.662Z,69.56
2018-05-06T00:32:08.660Z,69.37
2018-05-06T00:33:08.632Z,69.56
2018-05-06T00:34:08.621Z,69.37
2018-05-06T00:35:08.619Z,69.27
2018-05-06T00:36:08.591Z,69.18
2018-05-06T00:37:08.575Z,69.66
2018-05-06T00:38:08.562Z,69.76
2018-05-06T00:39:08.547Z,70.04
2018-05-06T00:40:08.535Z,70.33
2018-05-06T00:41:08.534Z,70.52
2018-05-06T00:42:08.505Z,70.61
2018-05-06T00:43:08.493Z,71.25
2018-05-06T00:44:08.492Z,71.82
2018-05-06T00:45:08.461Z,71.92
2018-05-06T00:46:08.448Z,72.58
2018-05-06T00:47:08.435Z,73.25
2018-05-06T00:48:08.438Z,73.69
2018-05-06T00:49:08.411Z,73.69
2018-05-06T00:50:08.394Z,74.17
2018-05-06T00:51:08.392Z,74.02
2018-05-06T00:52:08.369Z,74.17
2018-05-06T00:53:08.371Z,74.46
2018-05-06T00:54:08.338Z,74.93
2018-05-06T00:55:08.327Z,75.70
2018-05-06T00:56:08.322Z,75.89
2018-05-06T00:57:08.298Z,75.51
2018-05-06T00:58:08.298Z,76.37
2018-05-06T00:59:08.267Z,76.56
2018-05-06T01:00:08.256Z,76.84
2018-05-06T01:01:08.240Z,76.84
2018-05-06T01:02:08.223Z,77.23
2018-05-06T01:03:08.212Z,76.56
2018-05-06T01:04:08.211Z,76.37
2018-05-06T01:05:08.182Z,75.60
2018-05-06T01:06:08.168Z,75.60
2018-05-06T01:07:08.154Z,75.79
2018-05-06T01:08:08.143Z,75.22
2018-05-06T01:09:08.148Z,74.93
2018-05-06T01:10:08.112Z,74.84
2018-05-06T01:11:08.099Z,74.55
2018-05-06T01:12:08.089Z,74.27
2018-05-06T01:13:08.075Z,74.46
2018-05-06T01:14:08.057Z,74.65
2018-05-06T01:15:08.058Z,74.27
2018-05-06T01:16:08.023Z,74.74
2018-05-06T01:17:08.012Z,75.32
2018-05-06T01:18:07.998Z,74.84
2018-05-06T01:19:07.987Z,75.03
2018-05-06T01:20:07.967Z,75.51
2018-05-06T01:21:07.972Z,75.22
2018-05-06T01:22:07.938Z,75.51
2018-05-06T01:23:07.931Z,74.93
2018-05-06T01:24:07.909Z,75.32
2018-05-06T01:25:07.900Z,75.37
2018-05-06T01:26:07.882Z,75.32
2018-05-06T01:27:07.884Z,75.22
2018-05-06T01:28:07.860Z,75.79
2018-05-06T01:29:07.843Z,75.57
2018-05-06T01:30:07.823Z,75.09
2018-05-06T01:31:07.816Z,75.95
2018-05-06T01:32:07.801Z,75.57
2018-05-06T01:33:07.798Z,75.95
2018-05-06T01:34:07.769Z,75.76
2018-05-06T01:35:07.756Z,76.14
2018-05-06T01:36:07.752Z,76.23
2018-05-06T01:37:07.737Z,76.90
2018-05-06T01:38:07.710Z,77.38
2018-05-06T01:39:07.697Z,77.57
2018-05-06T01:40:07.684Z,77.47
2018-05-06T01:41:07.666Z,77.67
2018-05-06T01:42:07.663Z,77.76
2018-05-06T01:43:07.638Z,76.90
2018-05-06T01:44:07.625Z,76.90
2018-05-06T01:45:07.610Z,76.42
2018-05-06T01:46:07.600Z,76.81
2018-05-06T01:47:07.597Z,76.23
2018-05-06T01:48:07.586Z,76.04
2018-05-06T01:49:07.555Z,75.85
2018-05-06T01:50:07.539Z,75.37
2018-05-06T01:51:07.525Z,75.37
2018-05-06T01:52:07.508Z,75.47
2018-05-06T01:53:07.495Z,75.47
2018-05-06T01:54:07.494Z,75.66
2018-05-06T01:55:07.467Z,75.28
2018-05-06T01:56:07.452Z,75.22
2018-05-06T01:57:07.442Z,75.13
2018-05-06T01:58:07.422Z,75.03
2018-05-06T01:59:07.406Z,74.90
2018-05-06T02:00:07.407Z,75.13
2018-05-06T02:01:07.376Z,75.13
2018-05-06T02:02:07.361Z,74.93
2018-05-06T02:03:07.364Z,75.09
2018-05-06T02:04:07.344Z,75.13
2018-05-06T02:05:07.320Z,75.51
2018-05-06T02:06:07.303Z,75.03
2018-05-06T02:07:07.290Z,75.51
2018-05-06T02:08:07.284Z,75.51
2018-05-06T02:09:07.277Z,75.03
2018-05-06T02:10:07.246Z,75.47
2018-05-06T02:11:07.232Z,75.28
2018-05-06T02:12:07.219Z,75.57
2018-05-06T02:13:07.204Z,75.66
2018-05-06T02:14:07.189Z,76.42
2018-05-06T02:15:07.190Z,76.42
2018-05-06T02:16:07.160Z,76.52
2018-05-06T02:17:07.144Z,77.00
2018-05-06T02:18:07.130Z,77.19
2018-05-06T02:19:07.118Z,77.86
2018-05-06T02:20:07.115Z,78.23
2018-05-06T02:21:07.088Z,78.67
2018-05-06T02:22:07.085Z,78.96
2018-05-06T02:23:07.059Z,79.25
2018-05-06T02:24:07.044Z,78.86
2018-05-06T02:25:07.045Z,79.06
2018-05-06T02:26:07.013Z,79.82
2018-05-06T02:27:06.999Z,79.82
2018-05-06T02:28:06.984Z,79.63
2018-05-06T02:29:06.975Z,79.63
2018-05-06T02:30:06.964Z,79.63
2018-05-06T02:31:06.941Z,80.20
2018-05-06T02:32:06.926Z,79.72
2018-05-06T02:33:06.910Z,79.82
2018-05-06T02:34:06.894Z,79.91
2018-05-06T02:35:06.907Z,79.82
2018-05-06T02:36:06.871Z,79.35
2018-05-06T02:37:06.860Z,79.35
2018-05-06T02:38:06.838Z,79.82
2018-05-06T02:39:06.823Z,79.15
2018-05-06T02:40:06.808Z,79.35
2018-05-06T02:41:06.802Z,79.63
2018-05-06T02:42:06.777Z,79.25
2018-05-06T02:43:06.761Z,78.58
2018-05-06T02:44:06.749Z,79.25
2018-05-06T02:45:06.733Z,78.96
2018-05-06T02:46:06.731Z,79.06
2018-05-06T02:47:06.702Z,79.44
2018-05-06T02:48:06.689Z,79.44
2018-05-06T02:49:06.674Z,79.63
2018-05-06T02:50:06.657Z,79.82
2018-05-06T02:51:06.657Z,79.72
2018-05-06T02:52:06.635Z,80.49
2018-05-06T02:53:06.634Z,80.58
2018-05-06T02:54:06.599Z,80.39
2018-05-06T02:55:06.586Z,80.96
2018-05-06T02:56:06.585Z,81.73
2018-05-06T02:57:06.552Z,81.92
2018-05-06T02:58:06.540Z,81.78
2018-05-06T02:59:06.583Z,82.59
2018-05-06T03:00:06.509Z,83.02
2018-05-06T03:01:06.492Z,83.50
2018-05-06T03:02:06.495Z,83.78
2018-05-06T03:03:06.466Z,83.69
2018-05-06T03:04:06.450Z,83.50
2018-05-06T03:05:06.435Z,84.36
2018-05-06T03:06:06.420Z,84.45
2018-05-06T03:07:06.427Z,84.74
2018-05-06T03:08:06.389Z,84.36
2018-05-06T03:09:06.376Z,84.45
2018-05-06T03:10:06.361Z,85.12
2018-05-06T03:11:06.344Z,85.31
2018-05-06T03:12:06.333Z,85.60
2018-05-06T03:13:06.331Z,85.31
2018-05-06T03:14:06.302Z,85.97
2018-05-06T03:15:06.283Z,86.79
2018-05-06T03:16:06.269Z,87.21
2018-05-06T03:17:06.253Z,86.98
2018-05-06T03:18:06.255Z,87.46
2018-05-06T03:19:06.225Z,87.65
2018-05-06T03:20:06.212Z,87.36
2018-05-06T03:21:06.196Z,87.74
2018-05-06T03:22:06.175Z,87.65
2018-05-06T03:23:06.188Z,87.36
2018-05-06T03:24:06.148Z,87.55
2018-05-06T03:25:06.133Z,87.07
2018-05-06T03:26:06.117Z,87.07
2018-05-06T03:27:06.105Z,86.69
2018-05-06T03:28:06.089Z,87.02
2018-05-06T03:29:06.092Z,86.51
2018-05-06T03:30:06.055Z,86.74
2018-05-06T03:31:06.044Z,86.55
2018-05-06T03:32:06.029Z,86.32
2018-05-06T03:33:06.023Z,86.55
2018-05-06T03:34:05.997Z,86.69
2018-05-06T03:35:05.986Z,86.45
2018-05-06T03:36:05.985Z,87.12
2018-05-06T03:37:05.953Z,86.83
2018-05-06T03:38:05.935Z,87.21
2018-05-06T03:39:05.934Z,86.74
2018-05-06T03:40:05.904Z,86.60
2018-05-06T03:41:05.902Z,86.22
2018-05-06T03:42:05.875Z,86.74
2018-05-06T03:43:05.858Z,86.93
2018-05-06T03:44:05.845Z,87.55
2018-05-06T03:45:05.839Z,87.79
2018-05-06T03:46:05.812Z,86.93
2018-05-06T03:47:05.796Z,87.12
2018-05-06T03:48:05.783Z,87.40
2018-05-06T03:49:05.768Z,87.27
2018-05-06T03:50:05.765Z,87.31
2018-05-06T03:51:05.750Z,87.60
2018-05-06T03:52:05.741Z,87.46
2018-05-06T03:53:05.707Z,87.50
2018-05-06T03:54:05.690Z,88.07
2018-05-06T03:55:05.675Z,87.65
2018-05-06T03:56:05.659Z,87.93
2018-05-06T03:57:05.645Z,87.74
2018-05-06T03:58:05.648Z,87.84
2018-05-06T03:59:05.612Z,88.22
2018-05-06T04:00:05.599Z,88.12
2018-05-06T04:01:05.594Z,88.31
2018-05-06T04:02:05.597Z,87.93
2018-05-06T04:03:05.571Z,87.65
2018-05-06T04:04:05.537Z,87.50
2018-05-06T04:05:05.523Z,87.60
2018-05-06T04:06:05.502Z,87.60
2018-05-06T04:07:05.490Z,87.60
2018-05-06T04:08:05.493Z,87.31
2018-05-06T04:09:05.463Z,87.12
2018-05-06T04:10:05.446Z,86.93
2018-05-06T04:11:05.428Z,86.55
2018-05-06T04:12:05.429Z,86.45
2018-05-06T04:13:05.415Z,86.45
2018-05-06T04:14:05.378Z,86.16
2018-05-06T04:15:05.368Z,86.26
2018-05-06T04:16:05.349Z,86.26
2018-05-06T04:17:05.351Z,86.55
2018-05-06T04:18:05.331Z,85.88
2018-05-06T04:19:05.323Z,85.69
2018-05-06T04:20:05.290Z,85.31
2018-05-06T04:21:05.276Z,85.06
2018-05-06T04:22:05.263Z,84.59
2018-05-06T04:23:05.244Z,83.64
2018-05-06T04:24:05.241Z,82.87
2018-05-06T04:25:05.212Z,82.59
2018-05-06T04:26:05.199Z,82.15
2018-05-06T04:27:05.185Z,81.58
2018-05-06T04:28:05.168Z,80.91
2018-05-06T04:29:05.168Z,79.77
2018-05-06T04:30:05.137Z,80.33
2018-05-06T04:31:05.137Z,79.43
2018-05-06T04:32:05.108Z,79.23
2018-05-06T04:33:05.095Z,78.75
2018-05-06T04:34:05.079Z,78.37
2018-05-06T04:35:05.067Z,77.80
2018-05-06T04:36:05.065Z,78.09
2018-05-06T04:37:05.038Z,77.99
2018-05-06T04:38:05.017Z,77.61
2018-05-06T04:39:05.007Z,77.99
2018-05-06T04:40:04.990Z,77.99
2018-05-06T04:41:04.992Z,77.89
2018-05-06T04:42:04.960Z,78.18
2018-05-06T04:43:04.946Z,79.04
2018-05-06T04:44:04.932Z,79.38
2018-05-06T04:45:04.922Z,79.96
2018-05-06T04:46:04.903Z,79.86
2018-05-06T04:47:04.903Z,79.96
2018-05-06T04:48:04.885Z,80.72
2018-05-06T04:49:04.859Z,80.72
2018-05-06T04:50:04.858Z,80.53
2018-05-06T04:51:04.833Z,80.72
2018-05-06T04:52:04.817Z,80.62
2018-05-06T04:53:04.801Z,80.62
2018-05-06T04:54:04.784Z,80.33
2018-05-06T04:55:04.771Z,80.81
2018-05-06T04:56:04.772Z,80.43
2018-05-06T04:57:04.742Z,79.96
2018-05-06T04:58:04.743Z,80.62
2018-05-06T04:59:04.713Z,80.05
2018-05-06T05:00:04.698Z,79.86
2018-05-06T05:01:04.685Z,80.28
2018-05-06T05:02:04.668Z,80.47
2018-05-06T05:03:04.670Z,80.47
2018-05-06T05:04:04.645Z,79.90
2018-05-06T05:05:04.628Z,80.09
2018-05-06T05:06:04.611Z,80.38
2018-05-06T05:07:04.596Z,80.95
2018-05-06T05:08:04.596Z,80.95
2018-05-06T05:09:04.568Z,80.95
2018-05-06T05:10:04.566Z,81.04
2018-05-06T05:11:04.541Z,81.33
2018-05-06T05:12:04.523Z,80.85
2018-05-06T05:13:04.510Z,80.57
2018-05-06T05:14:04.494Z,80.57
2018-05-06T05:15:04.496Z,79.71
2018-05-06T05:16:04.485Z,79.99
2018-05-06T05:17:04.450Z,79.80
2018-05-06T05:18:04.438Z,79.85
2018-05-06T05:19:04.420Z,79.65
2018-05-06T05:20:04.405Z,78.41
2018-05-06T05:21:04.409Z,79.08
2018-05-06T05:22:04.378Z,79.08
2018-05-06T05:23:04.360Z,79.08
2018-05-06T05:24:04.349Z,79.94
2018-05-06T05:25:04.333Z,80.04
2018-05-06T05:26:04.333Z,80.04
2018-05-06T05:27:04.322Z,79.88
2018-05-06T05:28:04.292Z,80.41
2018-05-06T05:29:04.277Z,80.13
2018-05-06T05:30:04.266Z,79.17
2018-05-06T05:31:04.252Z,79.46
2018-05-06T05:32:04.250Z,79.65
2018-05-06T05:33:04.221Z,79.94
2018-05-06T05:34:04.221Z,80.61
2018-05-06T05:35:04.194Z,79.94
2018-05-06T05:36:04.177Z,79.27
2018-05-06T05:37:04.181Z,79.08
2018-05-06T05:38:04.151Z,79.85
2018-05-06T05:39:04.136Z,80.51
2018-05-06T05:40:04.117Z,80.17
2018-05-06T05:41:04.112Z,79.98
2018-05-06T05:42:04.110Z,80.07
2018-05-06T05:43:04.080Z,79.12
2018-05-06T05:44:04.084Z,78.64
2018-05-06T05:45:04.053Z,79.22
2018-05-06T05:46:04.038Z,78.78
2018-05-06T05:47:04.038Z,78.78
2018-05-06T05:48:04.026Z,78.49
2018-05-06T05:49:03.997Z,77.72
2018-05-06T05:50:03.982Z,77.53
2018-05-06T05:51:03.965Z,76.96
2018-05-06T05:52:03.956Z,76.33
2018-05-06T05:53:03.942Z,76.52
2018-05-06T05:54:03.944Z,75.95
2018-05-06T05:55:03.912Z,74.70
2018-05-06T05:56:03.900Z,74.04
2018-05-06T05:57:03.891Z,74.41
2018-05-06T05:58:03.887Z,73.75
2018-05-06T05:59:03.857Z,73.88
2018-05-06T06:00:03.860Z,74.45
2018-05-06T06:01:03.834Z,73.69
2018-05-06T06:02:03.819Z,72.73
2018-05-06T06:03:03.804Z,72.16
2018-05-06T06:04:03.810Z,72.73
2018-05-06T06:05:03.775Z,72.25
2018-05-06T06:06:03.761Z,72.25
2018-05-06T06:07:03.752Z,70.85
2018-05-06T06:08:03.738Z,70.66
2018-05-06T06:09:03.738Z,69.70
2018-05-06T06:10:03.711Z,71.23
2018-05-06T06:11:03.698Z,69.42
2018-05-06T06:12:03.685Z,69.89
2018-05-06T06:13:03.675Z,68.74
2018-05-06T06:14:03.682Z,69.32
2018-05-06T06:15:03.657Z,67.69
2018-05-06T06:16:03.629Z,67.88
2018-05-06T06:17:03.618Z,69.32
2018-05-06T06:18:03.608Z,68.11
2018-05-06T06:19:03.590Z,67.02
2018-05-06T06:20:03.594Z,66.16
2018-05-06T06:21:03.566Z,66.00
2018-05-06T06:22:03.585Z,65.91
2018-05-06T06:23:03.544Z,63.51
2018-05-06T06:24:03.528Z,61.11
2018-05-06T06:25:03.527Z,59.87
2018-05-06T06:26:03.499Z,59.87
2018-05-06T06:27:03.490Z,60.16
2018-05-06T06:28:03.489Z,59.77
2018-05-06T06:29:03.462Z,59.68
2018-05-06T06:30:03.447Z,58.72
2018-05-06T06:31:03.434Z,57.86
2018-05-06T06:32:03.424Z,57.95
2018-05-06T06:33:03.506Z,58.05
2018-05-06T06:34:03.396Z,58.34
2018-05-06T06:35:03.387Z,59.58
2018-05-06T06:36:03.371Z,59.71
2018-05-06T06:37:03.358Z,58.65
2018-05-06T06:38:03.346Z,59.04
2018-05-06T06:39:03.348Z,58.94
2018-05-06T06:40:03.320Z,57.31
2018-05-06T06:41:03.307Z,58.56
2018-05-06T06:42:03.295Z,58.69
2018-05-06T06:43:03.282Z,58.11
2018-05-06T06:44:03.271Z,57.34
2018-05-06T06:45:03.275Z,56.19
2018-05-06T06:46:04.303Z,54.85
2018-05-06T06:47:03.249Z,54.56
2018-05-06T06:48:03.246Z,56.00
2018-05-06T06:49:03.208Z,56.76
2018-05-06T06:50:03.197Z,56.19
2018-05-06T06:51:03.201Z,56.86
2018-05-06T06:52:03.177Z,54.46
2018-05-06T06:53:03.155Z,55.71
2018-05-06T06:54:03.141Z,55.83
2018-05-06T06:55:03.148Z,54.85
2018-05-06T06:56:03.119Z,53.12
2018-05-06T06:57:03.103Z,53.79
2018-05-06T06:58:03.094Z,54.56
2018-05-06T06:59:03.080Z,55.33
2018-05-06T07:00:03.069Z,55.80
2018-05-06T07:01:03.075Z,56.22
2018-05-06T07:02:03.046Z,56.70
2018-05-06T07:03:03.028Z,56.89
2018-05-06T07:04:03.019Z,55.64
2018-05-06T07:05:03.027Z,55.26
2018-05-06T07:06:02.991Z,55.16
2018-05-06T07:07:02.980Z,55.74
2018-05-06T07:08:02.972Z,55.45
2018-05-06T07:09:02.956Z,55.86
2018-05-06T07:10:02.960Z,54.42
2018-05-06T07:11:02.929Z,54.13
2018-05-06T07:12:02.921Z,54.52
2018-05-06T07:13:02.913Z,54.52
2018-05-06T07:14:02.897Z,52.53
2018-05-06T07:15:02.970Z,51.57
2018-05-06T07:16:02.873Z,51.37
2018-05-06T07:17:02.858Z,52.24
2018-05-06T07:18:02.920Z,51.95
2018-05-06T07:19:02.836Z,49.84
2018-05-06T07:20:02.825Z,49.91
2018-05-06T07:21:02.813Z,48.95
2018-05-06T07:22:02.815Z,49.24
2018-05-06T07:23:02.794Z,49.91
2018-05-06T07:24:02.777Z,49.72
2018-05-06T07:25:02.767Z,51.57
2018-05-06T07:26:02.766Z,52.05
2018-05-06T07:27:02.741Z,50.80
2018-05-06T07:28:02.728Z,49.93
2018-05-06T07:29:02.730Z,50.80
2018-05-06T07:30:02.706Z,51.09
2018-05-06T07:31:02.711Z,51.02
2018-05-06T07:32:02.681Z,51.40
2018-05-06T07:33:02.691Z,51.59
2018-05-06T07:34:02.658Z,51.40
2018-05-06T07:35:02.647Z,51.11
2018-05-06T07:36:02.634Z,50.63
2018-05-06T07:37:02.635Z,50.25
2018-05-06T07:38:02.613Z,47.85
2018-05-06T07:39:02.600Z,48.13
2018-05-06T07:40:02.597Z,47.44
2018-05-06T07:41:02.602Z,48.88
2018-05-06T07:42:02.599Z,49.38
2018-05-06T07:43:02.552Z,50.34
2018-05-06T07:44:02.543Z,50.63
2018-05-06T07:45:02.530Z,49.38
2018-05-06T07:46:02.519Z,47.27
2018-05-06T07:47:02.501Z,47.36
2018-05-06T07:48:02.504Z,47.08
2018-05-06T07:49:02.566Z,46.69
2018-05-06T07:50:02.469Z,46.67
2018-05-06T07:51:02.459Z,46.89
2018-05-06T07:52:02.447Z,47.94
2018-05-06T07:53:02.452Z,47.36
2018-05-06T07:54:02.425Z,47.27
2018-05-06T07:55:02.412Z,46.33
2018-05-06T07:56:02.400Z,46.62
2018-05-06T07:57:02.389Z,46.23
2018-05-06T07:58:02.380Z,46.72
2018-05-06T07:59:02.382Z,47.31
2018-05-06T08:00:02.367Z,46.93
2018-05-06T08:01:02.344Z,46.45
2018-05-06T08:02:02.328Z,45.97
2018-05-06T08:03:02.322Z,46.16
2018-05-06T08:04:02.309Z,46.55
2018-05-06T08:05:02.312Z,47.22
2018-05-06T08:06:02.287Z,46.64
2018-05-06T08:07:02.276Z,43.47
2018-05-06T08:08:02.267Z,42.32
2018-05-06T08:09:02.292Z,42.89
2018-05-06T08:10:02.252Z,42.22
2018-05-06T08:11:02.249Z,42.12
2018-05-06T08:12:02.221Z,42.22
2018-05-06T08:13:02.206Z,42.80
2018-05-06T08:14:02.196Z,42.03
2018-05-06T08:15:02.183Z,41.93
2018-05-06T08:16:02.172Z,42.60
2018-05-06T08:17:02.191Z,42.32
2018-05-06T08:18:02.151Z,42.50
2018-05-06T08:19:02.139Z,43.20
2018-05-06T08:20:02.130Z,42.63
2018-05-06T08:21:02.119Z,41.95
2018-05-06T08:22:02.126Z,41.47
2018-05-06T08:23:02.092Z,40.81
2018-05-06T08:24:02.083Z,39.64
2018-05-06T08:25:02.074Z,39.26
2018-05-06T08:26:02.066Z,39.74
2018-05-06T08:27:02.061Z,40.41
2018-05-06T08:28:02.041Z,40.03
2018-05-06T08:29:02.030Z,40.41
2018-05-06T08:30:02.019Z,39.74
2018-05-06T08:31:02.051Z,39.66
2018-05-06T08:32:02.006Z,39.56
2018-05-06T08:33:02.002Z,39.66
2018-05-06T08:34:01.976Z,39.78
2018-05-06T08:35:01.961Z,39.29
2018-05-06T08:36:01.950Z,39.29
2018-05-06T08:37:01.942Z,38.91
2018-05-06T08:38:01.929Z,39.01
2018-05-06T08:39:01.941Z,39.87
2018-05-06T08:40:01.909Z,38.91
2018-05-06T08:41:01.933Z,38.62
2018-05-06T08:42:01.888Z,38.93
2018-05-06T08:43:01.877Z,39.41
2018-05-06T08:44:01.877Z,42.11
2018-05-06T08:45:01.859Z,41.55
2018-05-06T08:46:01.842Z,42.03
2018-05-06T08:47:01.833Z,42.23
2018-05-06T08:48:01.837Z,41.57
2018-05-06T08:49:01.849Z,40.90
2018-05-06T08:50:01.798Z,40.53
2018-05-06T08:51:01.792Z,40.63
2018-05-06T08:52:01.784Z,40.53
2018-05-06T08:53:01.765Z,41.52
2018-05-06T08:54:01.761Z,39.11
2018-05-06T08:55:01.767Z,38.81
2018-05-06T08:56:01.742Z,38.71
2018-05-06T08:57:01.733Z,38.83
2018-05-06T08:58:01.716Z,37.88
2018-05-06T08:59:01.729Z,36.46
2018-05-06T09:00:01.720Z,36.57
2018-05-06T09:01:01.715Z,35.81
2018-05-06T09:02:01.699Z,33.51
2018-05-06T09:03:01.671Z,33.15
2018-05-06T09:04:01.693Z,32.87
2018-05-06T09:05:01.654Z,34.41
2018-05-06T09:06:01.643Z,34.14
2018-05-06T09:07:01.651Z,35.33
2018-05-06T09:08:01.638Z,33.78
2018-05-06T09:09:01.617Z,33.61
2018-05-06T09:10:01.636Z,33.61
2018-05-06T09:11:01.629Z,32.45
2018-05-06T09:12:01.585Z,31.87
2018-05-06T09:13:01.580Z,31.88
2018-05-06T09:14:01.567Z,32.20
2018-05-06T09:15:01.556Z,31.51
2018-05-06T09:16:01.566Z,31.03
2018-05-06T09:17:01.553Z,31.82
2018-05-06T09:18:01.531Z,31.53
2018-05-06T09:19:01.522Z,31.04
2018-05-06T09:20:01.534Z,30.96
2018-05-06T09:21:01.504Z,30.87
2018-05-06T09:22:01.494Z,30.29
2018-05-06T09:23:01.487Z,28.64
2018-05-06T09:24:01.481Z,29.61
2018-05-06T09:25:01.485Z,30.11
2018-05-06T09:26:01.463Z,30.52
2018-05-06T09:27:01.456Z,30.63
2018-05-06T09:28:01.456Z,30.63
2018-05-06T09:29:01.442Z,29.57
2018-05-06T09:30:01.445Z,29.69
2018-05-06T09:31:01.423Z,28.30
2018-05-06T09:32:01.421Z,29.08
2018-05-06T09:33:01.426Z,27.91
2018-05-06T09:34:01.406Z,28.30
2018-05-06T09:35:01.401Z,26.43
2018-05-06T09:36:01.394Z,28.18
2018-05-06T09:37:01.392Z,27.59
2018-05-06T09:38:01.411Z,27.31
2018-05-06T09:39:01.383Z,27.31
2018-05-06T09:40:01.378Z,25.65
2018-05-06T09:41:01.381Z,26.52
2018-05-06T09:42:01.376Z,27.12
2018-05-06T09:43:01.375Z,28.09
2018-05-06T09:44:01.381Z,27.31
2018-05-06T09:45:01.380Z,26.53
2018-05-06T09:46:01.363Z,26.34
2018-05-06T09:47:01.365Z,26.34
2018-05-06T09:48:01.362Z,26.43
2018-05-06T09:49:01.358Z,24.98
2018-05-06T09:50:01.372Z,24.60
2018-05-06T09:51:01.374Z,24.98
2018-05-06T09:52:01.356Z,26.73
2018-05-06T09:53:01.356Z,27.31
2018-05-06T09:54:01.354Z,28.28
2018-05-06T09:55:01.359Z,27.22
2018-05-06T09:56:01.354Z,27.48
2018-05-06T09:57:01.374Z,27.11
2018-05-06T09:58:01.355Z,26.73
2018-05-06T09:59:01.365Z,28.19
2018-05-06T10:00:01.357Z,28.32
2018-05-06T10:01:01.371Z,26.15
2018-05-06T10:02:01.355Z,25.08
2018-05-06T10:03:01.354Z,26.06
2018-05-06T10:04:01.358Z,28.40
2018-05-06T10:05:01.357Z,26.64
2018-05-06T10:06:01.377Z,27.34
2018-05-06T10:07:01.377Z,28.22
2018-05-06T10:08:01.362Z,28.82
2018-05-06T10:09:01.363Z,28.33
2018-05-06T10:10:01.363Z,26.59
2018-05-06T10:11:01.371Z,26.31
2018-05-06T10:12:01.383Z,27.58
2018-05-06T10:13:01.371Z,28.34
2018-05-06T10:14:01.373Z,28.44
2018-05-06T10:15:01.376Z,27.66
2018-05-06T10:16:01.378Z,28.26
2018-05-06T10:17:01.408Z,27.47
2018-05-06T10:18:01.385Z,28.06
2018-05-06T10:19:01.386Z,26.90
2018-05-06T10:20:01.386Z,28.08
2018-05-06T10:21:01.389Z,27.50
2018-05-06T10:22:01.395Z,27.98
2018-05-06T10:23:01.406Z,29.44
2018-05-06T10:24:01.398Z,29.71
2018-05-06T10:25:01.412Z,29.91
2018-05-06T10:26:02.936Z,29.32
2018-05-06T10:27:01.408Z,27.58
2018-05-06T10:28:01.445Z,27.59
2018-05-06T10:29:01.438Z,30.13
2018-05-06T10:30:01.418Z,27.39
2018-05-06T10:31:01.421Z,28.38
2018-05-06T10:32:01.436Z,28.65
2018-05-06T10:33:01.428Z,29.06
2018-05-06T10:34:01.433Z,27.39
2018-05-06T10:36:33.499Z,28.06
2018-05-06T10:37:33.500Z,28.38
2018-05-06T10:38:33.520Z,29.14
2018-05-06T10:39:33.495Z,27.97
2018-05-06T10:40:33.513Z,25.82
2018-05-06T10:41:33.506Z,25.62
2018-05-06T10:42:33.509Z,25.22
2018-05-06T10:43:33.509Z,24.14
2018-05-06T10:44:33.599Z,25.02
2018-05-06T10:45:33.533Z,27.47
2018-05-06T10:46:33.526Z,28.44
2018-05-06T10:47:33.526Z,28.15
2018-05-06T10:48:33.536Z,28.83
2018-05-06T10:49:33.534Z,27.98
2018-05-06T10:50:33.553Z,27.67
2018-05-06T10:51:33.550Z,26.11
2018-05-06T10:52:33.550Z,27.00
2018-05-06T10:53:33.555Z,25.33
2018-05-06T10:54:33.563Z,25.43
2018-05-06T10:55:33.584Z,27.58
2018-05-06T10:56:33.591Z,28.06
2018-05-06T10:57:33.571Z,27.28
2018-05-06T10:58:33.579Z,29.06
2018-05-06T10:59:33.585Z,27.69
2018-05-06T11:00:33.584Z,26.03
2018-05-06T11:01:33.608Z,23.69
2018-05-06T11:02:33.610Z,23.47
2018-05-06T11:03:33.601Z,22.80
2018-05-06T11:04:33.604Z,22.41
2018-05-06T11:05:33.611Z,21.92
2018-05-06T11:06:33.615Z,24.86
2018-05-06T11:07:33.640Z,22.13
2018-05-06T11:08:33.627Z,22.81
2018-05-06T11:09:33.624Z,23.58
2018-05-06T11:10:33.640Z,23.68
2018-05-06T11:11:33.659Z,25.15
2018-05-06T11:12:33.645Z,25.26
2018-05-06T11:13:33.651Z,24.29
2018-05-06T11:14:33.651Z,23.70
2018-05-06T11:15:33.663Z,21.84
2018-05-06T11:16:33.684Z,20.94
2018-05-06T11:17:33.672Z,20.73
2018-05-06T11:18:33.677Z,20.58
2018-05-06T11:19:33.685Z,23.41
2018-05-06T11:20:33.702Z,23.44
2018-05-06T11:21:33.712Z,23.94
2018-05-06T11:22:33.697Z,25.04
2018-05-06T11:23:33.705Z,23.86
2018-05-06T11:24:33.712Z,25.15
2018-05-06T11:25:33.712Z,22.22
2018-05-06T11:26:33.734Z,21.63
2018-05-06T11:27:33.742Z,20.35
2018-05-06T11:28:33.731Z,21.33
2018-05-06T11:29:33.735Z,22.50
2018-05-06T11:30:33.743Z,23.38
2018-05-06T11:31:33.751Z,23.00
2018-05-06T11:32:33.767Z,25.45
2018-05-06T11:33:33.756Z,24.86
2018-05-06T11:34:33.765Z,23.79
2018-05-06T11:35:33.787Z,24.18
2018-05-06T11:36:33.774Z,20.85
2018-05-06T11:37:33.780Z,21.63
2018-05-06T11:38:33.785Z,20.65
2018-05-06T11:39:33.787Z,20.53
2018-05-06T11:40:33.814Z,19.95
2018-05-06T11:41:33.802Z,20.72
2018-05-06T11:42:33.811Z,23.08
2018-05-06T11:43:33.813Z,23.09
2018-05-06T11:44:33.820Z,23.46
2018-05-06T11:45:33.840Z,21.61
2018-05-06T11:46:33.846Z,21.81
2018-05-06T11:47:33.838Z,21.92
2018-05-06T11:48:33.837Z,22.41
2018-05-06T11:49:34.636Z,23.80
2018-05-06T11:50:33.853Z,25.35
2018-05-06T11:51:33.873Z,21.03
2018-05-06T11:52:33.866Z,23.48
2018-05-06T11:53:33.885Z,23.38
2018-05-06T11:54:33.876Z,21.42
2018-05-06T11:55:33.881Z,22.41
2018-05-06T11:56:33.889Z,23.87
2018-05-06T11:57:33.891Z,24.55
2018-05-06T11:58:33.914Z,23.58
2018-05-06T11:59:33.904Z,23.68
2018-05-06T12:00:33.913Z,22.20
2018-05-06T12:01:33.914Z,21.42
2018-05-06T12:02:33.918Z,22.21
2018-05-06T12:03:33.948Z,22.41
2018-05-06T12:04:33.934Z,22.41
2018-05-06T12:05:33.933Z,21.63
2018-05-06T12:06:33.946Z,22.02
2018-05-06T12:07:33.949Z,22.78
2018-05-06T12:08:33.969Z,21.50
2018-05-06T12:09:33.979Z,22.19
2018-05-06T12:10:33.965Z,22.28
2018-05-06T12:11:33.968Z,25.23
2018-05-06T12:12:33.979Z,26.20
2018-05-06T12:13:33.982Z,24.53
2018-05-06T12:14:34.003Z,25.33
2018-05-06T12:15:34.008Z,21.81
2018-05-06T12:16:33.994Z,22.69
2018-05-06T12:17:34.004Z,22.19
2018-05-06T12:18:34.010Z,23.26
2018-05-06T12:19:34.027Z,23.54
2018-05-06T12:20:34.036Z,23.65
2018-05-06T12:21:34.024Z,23.47
2018-05-06T12:22:34.027Z,24.15
2018-05-06T12:23:34.036Z,23.05
2018-05-06T12:24:34.042Z,21.59
2018-05-06T12:25:34.062Z,21.68
2018-05-06T12:26:34.050Z,19.92
2018-05-06T12:27:34.060Z,20.51
2018-05-06T12:28:34.061Z,20.90
2018-05-06T12:29:34.068Z,21.49
2018-05-06T12:30:34.087Z,23.36
2018-05-06T12:31:34.089Z,23.76
2018-05-06T12:32:34.097Z,21.60
2018-05-06T12:33:34.147Z,19.34
2018-05-06T12:34:34.092Z,19.14
2018-05-06T12:35:34.095Z,19.91
2018-05-06T12:36:34.100Z,19.91
2018-05-06T12:37:34.122Z,20.48
2018-05-06T12:38:34.109Z,19.89
2018-05-06T12:39:34.113Z,19.70
2018-05-06T12:40:34.117Z,19.70
2018-05-06T12:41:34.143Z,21.43
2018-05-06T12:42:34.125Z,21.71
2018-05-06T12:43:34.128Z,23.66
2018-05-06T12:44:34.135Z,24.24
2018-05-06T12:45:34.141Z,22.58
2018-05-06T12:46:34.682Z,24.34
2018-05-06T12:47:34.145Z,23.86
2018-05-06T12:48:34.164Z,23.10
2018-05-06T12:49:34.236Z,23.21
2018-05-06T12:50:34.169Z,24.19
2018-05-06T12:51:34.158Z,23.82
2018-05-06T12:52:34.160Z,22.63
2018-05-06T12:53:34.181Z,22.44